Accueil
METAR-TAF:

METAR-TAF

Aéroports :

Aéroport de Pula

Pula, Croatie

latitude: 44-54N, longitude: 013-55E, altitude: 63 m

Observation

Le bulletin a été fait il y a 20 minutes, à 08:30 UTC
Vent 14 kt de est
Température 20°C
Humidité 43%
Pression 1017 hPa
Visibilité 10 km ou plus
pas de nuages en-dessous de 1500 mètres et pas de cumulonimbus.

METAR: LDPL 300830Z 10014KT CAVOK 20/07 Q1017 NOSIG

Heure: 10:50 (08:50 UTC)

Prévision

Le bulletin a été fait il y a 3 heures et 25 minutes, à 05:25 UTC
Prévision valable du 30 à 06 UTC au 31 à 06 UTC
Vent 8 kt de est/nord-est
Visibilité 10 km ou plus
pas de nuages en-dessous de 1500 mètres et pas de cumulonimbus.
Evoluant progressivement
du 30 à 12 UTC au 30 à 14 UTC
Vent 8 kt de ouest/nord-ouest
Evoluant progressivement
du 30 à 20 UTC au 30 à 22 UTC
Vent 8 kt de est/nord-est

TAF: LDPL 300525Z 3006/3106 06008KT CAVOK TX22/3013Z TN14/3104Z BECMG 3012/3014 30008KT BECMG 3020/3022 06008KT

Observations et prévisions météorologiques de plus de 4000 aéroports (messages METAR et TAF).

Les stations disponibles sont représentées par des disques jaunes et rouges sur la carte.

Passer la souris dessus pour voir le nom de la station.

Cliquer dessus pour voir les observations et prévisions météorologiques.

Pour changer de carte: cliquez sur les boutons verts avec une croix noire pour zoomer, sur le bouton vert avec un tiret pour effectuer un zoom arrière, ou sur les flèches vertes pour les cartes adjacentes.


METAR-TAF: